Time;durP1;ratioP1;P1;durP2;ratioP2;P2;SDS_P1;SDS_P2;PMS_P1;PMS_P2;Temp;Humidity;BMP_temperature;BMP_pressure;BME280_temperature;BME280_humidity;BME280_pressure;Samples;Min_cycle;Max_cycle;Signal;HPM_P1;HPM_P2
2021/01/17 00:00:01;;;;;;;26.85;12.45;;;0.00;99.90;;;;;;5005144;28;20038;-66
2021/01/17 00:02:27;;;;;;;28.80;11.77;;;0.00;99.90;;;;;;4996944;28;20026;-66
2021/01/17 00:04:53;;;;;;;27.73;12.48;;;0.00;99.90;;;;;;5013137;28;20034;-66
2021/01/17 00:07:19;;;;;;;27.02;11.93;;;0.00;99.90;;;;;;5012720;28;20613;-66
2021/01/17 00:09:45;;;;;;;26.80;12.05;;;0.00;99.90;;;;;;5012153;28;20049;-65
2021/01/17 00:12:10;;;;;;;27.67;11.85;;;0.00;99.90;;;;;;5010835;28;20056;-65
2021/01/17 00:14:36;;;;;;;29.55;14.20;;;0.00;99.90;;;;;;5009961;28;20021;-65
2021/01/17 00:17:03;;;;;;;27.52;12.18;;;-0.10;99.90;;;;;;5007217;28;20100;-65
2021/01/17 00:19:29;;;;;;;28.83;12.00;;;-0.10;99.90;;;;;;5010243;28;20052;-66
2021/01/17 00:21:55;;;;;;;25.10;12.23;;;0.00;99.90;;;;;;5010814;28;20393;-65
2021/01/17 00:24:21;;;;;;;29.35;14.07;;;0.00;99.90;;;;;;5010595;28;20036;-65
2021/01/17 00:26:46;;;;;;;27.77;13.10;;;0.00;99.90;;;;;;5010808;28;20025;-65
2021/01/17 00:29:12;;;;;;;26.95;12.70;;;0.00;99.90;;;;;;5011007;28;20097;-64
2021/01/17 00:31:38;;;;;;;26.70;12.18;;;0.00;99.90;;;;;;5011981;28;20088;-64
2021/01/17 00:34:04;;;;;;;27.30;12.18;;;-0.10;99.90;;;;;;5010628;28;20508;-64
2021/01/17 00:36:37;;;;;;;28.33;11.90;;;-0.10;99.90;;;;;;5011833;28;20018;-64
2021/01/17 00:39:05;;;;;;;26.35;11.88;;;0.00;99.90;;;;;;5009948;28;20112;-63
2021/01/17 00:41:31;;;;;;;26.50;12.40;;;0.00;99.90;;;;;;5011840;28;20389;-65
2021/01/17 00:43:57;;;;;;;27.33;12.63;;;-0.10;99.90;;;;;;5011671;28;20105;-64
2021/01/17 00:46:23;;;;;;;26.88;12.30;;;-0.10;99.90;;;;;;4317342;28;10000628;-64
2021/01/17 00:48:48;;;;;;;27.95;11.70;;;-0.10;99.90;;;;;;4998968;28;20027;-64
2021/01/17 00:51:14;;;;;;;28.65;13.02;;;-0.10;99.90;;;;;;4989478;28;20074;-65
2021/01/17 00:53:39;;;;;;;24.73;11.68;;;0.00;99.90;;;;;;5001115;28;20048;-65
2021/01/17 00:56:05;;;;;;;28.05;12.20;;;-0.10;99.90;;;;;;5011033;28;20044;-66
2021/01/17 00:58:30;;;;;;;27.20;12.50;;;0.00;99.90;;;;;;5011611;28;20041;-65
2021/01/17 01:00:56;;;;;;;26.95;13.00;;;-0.10;99.90;;;;;;5011285;28;20064;-65
2021/01/17 01:03:22;;;;;;;27.52;12.88;;;-0.10;99.90;;;;;;5011452;28;20041;-65
2021/01/17 01:05:48;;;;;;;25.67;12.27;;;-0.10;99.90;;;;;;5011491;28;20493;-66
2021/01/17 01:08:14;;;;;;;27.55;12.38;;;-0.10;99.90;;;;;;5012717;28;20053;-68
2021/01/17 01:10:39;;;;;;;25.05;11.13;;;-0.10;99.90;;;;;;5010589;28;20672;-65
2021/01/17 01:13:05;;;;;;;27.67;12.30;;;-0.10;99.90;;;;;;5013449;28;20049;-65
2021/01/17 01:15:30;;;;;;;28.42;13.43;;;-0.10;99.90;;;;;;5015007;28;20014;-65
2021/01/17 01:17:56;;;;;;;28.00;13.23;;;-0.10;99.90;;;;;;5015843;28;20029;-66
2021/01/17 01:20:22;;;;;;;28.90;13.07;;;-0.10;99.90;;;;;;5014154;28;20117;-65
2021/01/17 01:22:47;;;;;;;28.45;14.10;;;-0.10;99.90;;;;;;5015962;28;20056;-65
2021/01/17 01:25:13;;;;;;;27.73;12.82;;;-0.10;99.90;;;;;;5015658;28;20026;-66
2021/01/17 01:27:38;;;;;;;30.83;13.45;;;-0.10;99.90;;;;;;5014547;28;20026;-65
2021/01/17 01:30:06;;;;;;;29.55;13.40;;;-0.10;99.90;;;;;;5014013;28;20448;-65
2021/01/17 01:32:32;;;;;;;28.13;12.48;;;0.00;99.90;;;;;;5015332;28;20022;-65
2021/01/17 01:34:58;;;;;;;29.77;13.18;;;0.00;99.90;;;;;;5015341;28;20087;-65
2021/01/17 01:37:24;;;;;;;28.73;14.20;;;0.00;99.90;;;;;;5015475;28;20056;-65
2021/01/17 01:39:49;;;;;;;28.45;12.82;;;0.00;99.90;;;;;;5013619;28;20021;-65
2021/01/17 01:42:15;;;;;;;27.08;13.35;;;0.00;99.90;;;;;;5015467;28;20034;-64
2021/01/17 01:44:40;;;;;;;30.15;14.18;;;-0.10;99.90;;;;;;5013854;28;20397;-66
2021/01/17 01:47:20;;;;;;;27.73;13.23;;;-0.10;99.90;;;;;;5014144;28;20029;-65
2021/01/17 01:49:46;;;;;;;28.40;12.23;;;-0.10;99.90;;;;;;5012997;28;20018;-65
2021/01/17 01:52:13;;;;;;;29.17;12.57;;;-0.10;99.90;;;;;;5013468;28;20105;-65
2021/01/17 01:54:40;;;;;;;28.45;13.80;;;-0.10;99.90;;;;;;5014617;28;20026;-65
2021/01/17 01:57:06;;;;;;;28.45;13.45;;;-0.10;99.90;;;;;;5013308;28;20025;-64
2021/01/17 01:59:33;;;;;;;29.10;15.10;;;-0.20;99.90;;;;;;5012921;28;20033;-65
2021/01/17 02:01:59;;;;;;;28.05;13.93;;;-0.20;99.90;;;;;;5014051;28;20454;-65
2021/01/17 02:04:24;;;;;;;28.92;13.15;;;-0.10;99.90;;;;;;5013270;28;20033;-65
2021/01/17 02:07:13;;;;;;;28.38;12.70;;;-0.10;99.90;;;;;;5013092;28;20036;-65
2021/01/17 02:09:39;;;;;;;29.17;13.27;;;-0.10;99.90;;;;;;5014008;28;20030;-64
2021/01/17 02:12:11;;;;;;;30.67;14.98;;;-0.10;99.90;;;;;;5013931;28;20124;-65
2021/01/17 02:14:37;;;;;;;29.13;14.30;;;-0.10;99.90;;;;;;5015462;28;20101;-65
2021/01/17 02:17:05;;;;;;;29.08;12.73;;;-0.10;99.90;;;;;;5015133;28;20113;-64
2021/01/17 02:19:37;;;;;;;31.05;13.77;;;-0.10;99.90;;;;;;5013203;28;20056;-65
2021/01/17 02:22:03;;;;;;;29.02;13.57;;;-0.10;99.90;;;;;;5013724;28;20516;-66
2021/01/17 02:24:55;;;;;;;29.52;13.07;;;0.00;99.90;;;;;;5012588;28;20497;-65
2021/01/17 02:27:21;;;;;;;27.73;13.40;;;0.00;99.90;;;;;;5013327;28;20030;-65
2021/01/17 02:29:49;;;;;;;27.42;12.55;;;-0.10;99.90;;;;;;5012777;28;20448;-65
2021/01/17 02:32:17;;;;;;;28.13;13.85;;;0.00;99.90;;;;;;5013122;28;20477;-64
2021/01/17 02:34:45;;;;;;;28.80;14.25;;;0.00;99.90;;;;;;5013125;28;20084;-65
2021/01/17 02:37:23;;;;;;;31.35;13.80;;;0.00;99.90;;;;;;5014365;28;20030;-65
2021/01/17 02:40:03;;;;;;;28.70;13.45;;;0.00;99.90;;;;;;5013807;28;20022;-65
2021/01/17 02:42:29;;;;;;;29.85;14.68;;;0.00;99.90;;;;;;4994825;28;20405;-63
2021/01/17 02:44:56;;;;;;;28.02;13.90;;;0.00;99.90;;;;;;5007935;28;20076;-65
2021/01/17 02:47:22;;;;;;;27.20;13.05;;;0.00;99.90;;;;;;5014317;28;20030;-65
2021/01/17 02:49:47;;;;;;;30.92;14.43;;;0.00;99.90;;;;;;5012613;28;20057;-66
2021/01/17 02:52:13;;;;;;;28.95;14.40;;;0.00;99.90;;;;;;5014387;28;20433;-65
2021/01/17 02:54:41;;;;;;;28.10;13.55;;;0.00;99.90;;;;;;5013948;28;20030;-65
2021/01/17 02:57:08;;;;;;;30.67;14.70;;;0.10;99.90;;;;;;5013249;28;20037;-66
2021/01/17 02:59:57;;;;;;;31.75;14.32;;;-0.10;99.90;;;;;;5013507;28;20037;-67
2021/01/17 03:02:28;;;;;;;29.10;14.00;;;-0.10;99.90;;;;;;5013383;28;20034;-66
2021/01/17 03:04:58;;;;;;;33.10;15.77;;;-0.10;99.90;;;;;;5009558;28;20022;-65
2021/01/17 03:07:31;;;;;;;32.17;15.43;;;-0.10;99.90;;;;;;5012605;28;20076;-65
2021/01/17 03:09:57;;;;;;;34.15;14.85;;;0.00;99.90;;;;;;5012347;28;20477;-65
2021/01/17 03:12:23;;;;;;;35.42;16.33;;;-0.10;99.90;;;;;;5013911;28;20026;-66
2021/01/17 03:14:51;;;;;;;31.52;16.20;;;0.00;99.90;;;;;;5013396;28;20533;-65
2021/01/17 03:17:17;;;;;;;29.90;14.05;;;-0.10;99.90;;;;;;5012722;28;20029;-65
2021/01/17 03:19:42;;;;;;;32.15;15.50;;;-0.10;99.90;;;;;;5012065;28;20034;-65
2021/01/17 03:22:08;;;;;;;32.88;16.30;;;0.00;99.90;;;;;;5012487;28;20133;-66
2021/01/17 03:24:34;;;;;;;34.13;16.08;;;-0.10;99.90;;;;;;5014113;28;20025;-65
2021/01/17 03:27:00;;;;;;;34.08;16.73;;;0.00;99.90;;;;;;5013820;28;20438;-65
2021/01/17 03:29:26;;;;;;;32.38;16.30;;;0.00;99.90;;;;;;5013154;28;20037;-66
2021/01/17 03:31:52;;;;;;;33.50;16.63;;;0.00;99.90;;;;;;5012569;28;20038;-65
2021/01/17 03:34:17;;;;;;;35.80;18.15;;;0.00;99.90;;;;;;5013020;28;20045;-65
2021/01/17 03:36:43;;;;;;;35.15;17.42;;;-0.10;99.90;;;;;;5012448;28;20108;-66
2021/01/17 03:39:09;;;;;;;34.60;17.10;;;-0.10;99.90;;;;;;5012624;28;20394;-66
2021/01/17 03:41:35;;;;;;;34.65;17.42;;;0.00;99.90;;;;;;5011867;28;20109;-65
2021/01/17 03:44:00;;;;;;;36.60;16.65;;;0.00;99.90;;;;;;5011819;28;20037;-66
2021/01/17 03:46:30;;;;;;;36.38;17.58;;;-0.10;99.90;;;;;;5012039;28;20030;-66
2021/01/17 03:48:56;;;;;;;38.13;17.23;;;-0.10;99.90;;;;;;5011316;28;20026;-66
2021/01/17 03:51:21;;;;;;;32.65;16.80;;;-0.10;99.90;;;;;;5012180;28;20029;-65
2021/01/17 03:53:47;;;;;;;35.80;16.75;;;-0.10;99.90;;;;;;5011475;28;20049;-65
2021/01/17 03:56:13;;;;;;;35.05;16.92;;;-0.10;99.90;;;;;;5012221;28;20459;-66
2021/01/17 03:58:39;;;;;;;36.08;19.25;;;-0.20;99.90;;;;;;5011794;28;20025;-66
2021/01/17 04:01:04;;;;;;;34.17;17.05;;;-0.20;99.90;;;;;;5013586;28;20030;-66
2021/01/17 04:03:30;;;;;;;37.65;19.05;;;-0.20;99.90;;;;;;5012054;28;20040;-65
2021/01/17 04:05:55;;;;;;;38.28;18.30;;;-0.20;99.90;;;;;;5012610;28;20092;-66
2021/01/17 04:08:21;;;;;;;39.97;18.10;;;-0.30;99.90;;;;;;5011125;28;20030;-65
2021/01/17 04:10:46;;;;;;;36.78;18.13;;;-0.20;99.90;;;;;;5011658;28;20018;-67
2021/01/17 04:13:12;;;;;;;41.90;19.25;;;-0.30;99.90;;;;;;5011675;28;20053;-65
2021/01/17 04:15:38;;;;;;;37.20;18.83;;;-0.20;99.90;;;;;;5011694;28;20120;-65
2021/01/17 04:18:04;;;;;;;37.83;18.90;;;-0.30;99.90;;;;;;5011488;28;20026;-66
2021/01/17 04:20:29;;;;;;;40.55;18.67;;;-0.20;99.90;;;;;;5011076;28;20026;-66
2021/01/17 04:23:01;;;;;;;35.97;16.65;;;-0.20;99.90;;;;;;5011079;28;20030;-65
2021/01/17 04:25:28;;;;;;;40.05;21.15;;;-0.20;99.90;;;;;;5011298;28;20026;-66
2021/01/17 04:27:53;;;;;;;39.90;20.48;;;-0.10;99.90;;;;;;5012352;28;20057;-66
2021/01/17 04:30:20;;;;;;;40.30;18.83;;;-0.20;99.90;;;;;;5012079;28;20050;-66
2021/01/17 04:32:45;;;;;;;39.90;18.80;;;-0.20;99.90;;;;;;5012717;28;20072;-65
2021/01/17 04:35:13;;;;;;;39.30;18.33;;;-0.20;99.90;;;;;;5012043;28;20441;-64
2021/01/17 04:37:39;;;;;;;36.67;19.42;;;-0.10;99.90;;;;;;5010588;28;20095;-65
2021/01/17 04:40:07;;;;;;;36.92;18.70;;;-0.20;99.90;;;;;;5011934;28;20026;-64
2021/01/17 04:42:37;;;;;;;38.28;19.17;;;-0.20;99.90;;;;;;5012347;28;20128;-65
2021/01/17 04:45:06;;;;;;;39.40;18.65;;;-0.20;99.90;;;;;;5010907;28;20561;-65
2021/01/17 04:47:34;;;;;;;40.47;21.02;;;-0.10;99.90;;;;;;4992019;28;20054;-65
2021/01/17 04:50:06;;;;;;;40.00;19.50;;;-0.10;99.90;;;;;;4992410;28;20482;-65
2021/01/17 04:52:42;;;;;;;40.17;19.02;;;-0.10;99.90;;;;;;4991502;28;20041;-65
2021/01/17 04:55:12;;;;;;;36.60;18.52;;;-0.10;99.90;;;;;;4991652;28;20041;-66
2021/01/17 04:57:56;;;;;;;39.85;19.98;;;0.00;99.90;;;;;;4993083;28;20038;-65
2021/01/17 05:00:28;;;;;;;38.47;18.60;;;0.00;99.90;;;;;;4995873;28;20042;-66
2021/01/17 05:03:08;;;;;;;36.53;17.95;;;-0.10;99.90;;;;;;5013312;28;20374;-66
2021/01/17 05:05:41;;;;;;;38.75;18.88;;;-0.10;99.90;;;;;;5013855;28;20140;-66
2021/01/17 05:08:30;;;;;;;37.88;18.90;;;-0.10;99.90;;;;;;5007372;28;20026;-66
2021/01/17 05:10:58;;;;;;;35.83;17.45;;;-0.10;99.90;;;;;;5014495;28;20030;-66
2021/01/17 05:13:30;;;;;;;38.88;19.05;;;-0.10;99.90;;;;;;5013126;28;20049;-66
2021/01/17 05:15:57;;;;;;;42.53;19.13;;;-0.20;99.90;;;;;;5012780;28;20080;-65
2021/01/17 05:18:23;;;;;;;37.72;20.40;;;-0.10;99.90;;;;;;5011523;28;20101;-66
2021/01/17 05:20:56;;;;;;;38.95;19.33;;;-0.10;99.90;;;;;;5010655;28;20169;-66
2021/01/17 05:23:22;;;;;;;41.15;20.50;;;-0.10;99.90;;;;;;5010813;28;20030;-66
2021/01/17 05:25:49;;;;;;;36.22;17.48;;;0.00;99.90;;;;;;5012002;28;20040;-66
2021/01/17 05:28:15;;;;;;;37.78;18.90;;;0.00;99.90;;;;;;5010720;28;20026;-66
2021/01/17 05:30:47;;;;;;;38.50;17.88;;;0.00;99.90;;;;;;5010542;28;20029;-65
2021/01/17 05:33:18;;;;;;;38.33;19.83;;;0.00;99.90;;;;;;5010457;28;20689;-66
2021/01/17 05:35:44;;;;;;;42.05;18.02;;;0.00;99.90;;;;;;5011705;28;20050;-65
2021/01/17 05:38:14;;;;;;;41.75;19.83;;;0.00;99.90;;;;;;5011385;28;20081;-66
2021/01/17 05:40:39;;;;;;;37.17;19.45;;;0.00;99.90;;;;;;5010154;28;20034;-66
2021/01/17 05:43:08;;;;;;;36.33;17.92;;;0.10;99.90;;;;;;5010426;28;20041;-64
2021/01/17 05:45:34;;;;;;;38.10;19.58;;;0.10;99.90;;;;;;5011949;28;20557;-66
2021/01/17 05:48:00;;;;;;;41.88;18.85;;;0.10;99.90;;;;;;5010044;28;20122;-70
2021/01/17 05:50:31;;;;;;;40.45;19.65;;;0.20;99.90;;;;;;5009826;28;20656;-65
2021/01/17 05:52:58;;;;;;;41.65;19.60;;;0.20;99.90;;;;;;5009649;28;20082;-65
2021/01/17 05:55:31;;;;;;;42.58;19.10;;;0.20;99.90;;;;;;5011379;28;20026;-66
2021/01/17 05:58:26;;;;;;;41.08;20.23;;;0.20;99.90;;;;;;5011011;28;20122;-65
2021/01/17 06:00:57;;;;;;;37.38;17.90;;;0.20;99.90;;;;;;5013186;28;20120;-65
2021/01/17 06:03:37;;;;;;;45.85;20.55;;;0.20;99.90;;;;;;5013183;28;20164;-65
2021/01/17 06:06:05;;;;;;;41.33;19.77;;;0.30;99.90;;;;;;5013315;28;20108;-66
2021/01/17 06:08:36;;;;;;;40.05;18.60;;;0.20;99.90;;;;;;5013418;28;20018;-65
2021/01/17 06:11:12;;;;;;;39.20;19.88;;;0.30;99.90;;;;;;5014302;28;20113;-65
2021/01/17 06:13:42;;;;;;;46.83;22.92;;;0.20;99.90;;;;;;5014432;28;20037;-66
2021/01/17 06:16:33;;;;;;;44.55;20.70;;;0.10;99.90;;;;;;5012988;28;20030;-66
2021/01/17 06:19:01;;;;;;;45.78;22.80;;;0.20;99.90;;;;;;5007316;28;20509;-65
2021/01/17 06:21:30;;;;;;;44.60;22.50;;;0.10;99.90;;;;;;5014830;28;20389;-66
2021/01/17 06:24:00;;;;;;;;;;;0.10;99.90;;;;;;5014124;28;20468;-66
2021/01/17 06:26:31;;;;;;;39.58;18.48;;;0.10;99.90;;;;;;5014839;28;20000;-67
2021/01/17 06:28:58;;;;;;;41.97;20.55;;;0.10;99.90;;;;;;5012816;28;20033;-66
2021/01/17 06:31:29;;;;;;;41.58;21.45;;;0.10;99.90;;;;;;5013394;28;20149;-65
2021/01/17 06:34:05;;;;;;;39.17;19.25;;;0.20;99.90;;;;;;5014635;28;20425;-66
2021/01/17 06:36:31;;;;;;;43.05;19.10;;;0.20;99.90;;;;;;5013470;28;20025;-66
2021/01/17 06:38:57;;;;;;;43.35;18.83;;;0.20;99.90;;;;;;5012560;28;20022;-66
2021/01/17 06:41:36;;;;;;;44.45;20.73;;;0.20;99.90;;;;;;5014346;28;20088;-66
2021/01/17 06:44:11;;;;;;;46.10;20.50;;;0.20;99.90;;;;;;5013167;28;20029;-66
2021/01/17 06:46:39;;;;;;;50.58;22.10;;;0.20;99.90;;;;;;5012980;28;20497;-65
2021/01/17 06:49:24;;;;;;;48.58;20.67;;;0.30;99.90;;;;;;5012439;28;20062;-65
2021/01/17 06:51:52;;;;;;;49.58;21.70;;;0.20;99.90;;;;;;5013228;28;20025;-65
2021/01/17 06:54:19;;;;;;;48.22;21.60;;;0.20;99.90;;;;;;5035899;23;20054;-64
2021/01/17 06:56:46;;;;;;;52.83;22.30;;;0.30;99.90;;;;;;5012802;28;20405;-63
2021/01/17 06:59:27;;;;;;;48.58;19.88;;;0.30;99.90;;;;;;5013236;28;20022;-65
2021/01/17 07:02:10;;;;;;;50.88;22.67;;;0.20;99.90;;;;;;5014296;28;20026;-63
2021/01/17 07:04:40;;;;;;;43.85;21.17;;;0.30;99.90;;;;;;5013897;28;20544;-65
2021/01/17 07:07:06;;;;;;;44.55;21.98;;;0.30;99.90;;;;;;5013752;28;20468;-65
2021/01/17 07:09:37;;;;;;;50.28;19.98;;;0.30;99.90;;;;;;5012789;28;20058;-65
2021/01/17 07:12:42;;;;;;;43.22;20.83;;;0.30;99.90;;;;;;5012305;28;20041;-63
2021/01/17 07:15:09;;;;;;;43.35;20.50;;;0.30;99.90;;;;;;4997158;28;20057;-64
2021/01/17 07:17:41;;;;;;;43.72;21.50;;;0.30;99.90;;;;;;5012456;28;20033;-63
2021/01/17 07:20:14;;;;;;;45.08;21.38;;;0.30;99.90;;;;;;5012051;28;20022;-64
2021/01/17 07:22:44;;;;;;;45.33;21.60;;;0.30;99.90;;;;;;5013735;28;20057;-64
2021/01/17 07:25:12;;;;;;;51.25;21.38;;;0.30;99.90;;;;;;5012211;28;20041;-65
2021/01/17 07:28:07;;;;;;;45.80;20.40;;;0.40;99.90;;;;;;5013694;28;20021;-61
2021/01/17 07:30:39;;;;;;;47.50;20.92;;;0.40;99.90;;;;;;5011700;28;20026;-64
2021/01/17 07:33:06;;;;;;;42.97;20.63;;;0.40;99.90;;;;;;5011838;28;20120;-65
2021/01/17 07:35:51;;;;;;;38.45;18.55;;;0.40;99.90;;;;;;5012018;28;20021;-64
2021/01/17 07:38:26;;;;;;;39.92;19.75;;;0.40;99.90;;;;;;5011773;28;20493;-63
2021/01/17 07:41:07;;;;;;;40.28;19.38;;;0.40;99.90;;;;;;5011674;28;20046;-63
2021/01/17 07:43:34;;;;;;;38.22;20.58;;;0.40;99.90;;;;;;5013042;28;20100;-64
2021/01/17 07:46:05;;;;;;;39.15;20.73;;;0.40;99.90;;;;;;5011946;28;20030;-65
2021/01/17 07:48:32;;;;;;;41.17;20.55;;;0.50;99.90;;;;;;5011633;28;20030;-65
2021/01/17 07:51:00;;;;;;;36.53;18.15;;;0.50;99.90;;;;;;5011883;28;20072;-65
2021/01/17 07:53:38;;;;;;;41.30;18.42;;;0.50;99.90;;;;;;5011967;28;20022;-65
2021/01/17 07:56:12;;;;;;;37.53;18.02;;;0.50;99.90;;;;;;5011657;28;20069;-64
2021/01/17 07:58:44;;;;;;;41.60;19.85;;;0.50;99.90;;;;;;5012234;28;20401;-64
2021/01/17 08:01:35;;;;;;;37.60;18.33;;;0.50;99.90;;;;;;5011187;28;20173;-65
2021/01/17 08:04:03;;;;;;;38.80;19.13;;;0.50;99.90;;;;;;5011681;28;20032;-64
2021/01/17 08:06:35;;;;;;;44.25;20.48;;;0.50;99.90;;;;;;5012835;28;20366;-64
2021/01/17 08:09:04;;;;;;;41.08;18.83;;;0.40;99.90;;;;;;5012142;28;20034;-64
2021/01/17 08:11:41;;;;;;;40.30;20.08;;;0.40;99.90;;;;;;5012611;28;20367;-63
2021/01/17 08:14:31;;;;;;;42.28;19.92;;;0.40;99.90;;;;;;5012618;28;20492;-65
2021/01/17 08:17:10;;;;;;;41.20;19.92;;;0.40;99.90;;;;;;5011213;28;20041;-63
2021/01/17 08:19:36;;;;;;;39.78;20.35;;;0.50;99.90;;;;;;5007895;28;20454;-64
2021/01/17 08:22:17;;;;;;;39.97;20.35;;;0.50;99.90;;;;;;4992722;28;20037;-63
2021/01/17 08:24:53;;;;;;;38.75;20.55;;;0.60;99.90;;;;;;4992283;28;20478;-64
2021/01/17 08:27:31;;;;;;;41.63;21.65;;;0.60;99.90;;;;;;5000229;28;20049;-64
2021/01/17 08:30:06;;;;;;;38.42;20.00;;;0.60;99.90;;;;;;5011138;28;20018;-65
2021/01/17 08:32:43;;;;;;;43.42;20.70;;;0.60;99.90;;;;;;5010047;28;20014;-64
2021/01/17 08:35:15;;;;;;;43.83;20.67;;;0.60;99.90;;;;;;5001428;28;20489;-65
2021/01/17 08:37:42;;;;;;;38.58;19.83;;;0.70;99.90;;;;;;5010653;28;20033;-64
2021/01/17 08:40:08;;;;;;;42.55;21.23;;;0.70;99.90;;;;;;5011611;28;20045;-63
2021/01/17 08:42:47;;;;;;;37.03;19.13;;;0.80;99.90;;;;;;5010588;28;20141;-65
2021/01/17 08:45:19;;;;;;;43.03;20.27;;;0.80;99.90;;;;;;4991975;28;20026;-63
2021/01/17 08:47:45;;;;;;;42.72;20.98;;;0.70;99.90;;;;;;4991267;28;20034;-66
2021/01/17 08:50:36;;;;;;;39.85;20.60;;;0.70;99.90;;;;;;4991238;28;20023;-63
2021/01/17 08:53:12;;;;;;;45.70;20.67;;;0.70;99.90;;;;;;4991878;28;20052;-62
2021/01/17 08:55:43;;;;;;;38.55;20.65;;;0.60;99.90;;;;;;4991387;28;20509;-61
2021/01/17 08:58:10;;;;;;;43.20;20.65;;;0.60;99.90;;;;;;4990842;28;20033;-63
2021/01/17 09:00:57;;;;;;;47.75;22.23;;;0.70;99.90;;;;;;4999650;28;20101;-64
2021/01/17 09:03:26;;;;;;;38.67;19.92;;;0.90;99.90;;;;;;5011804;28;20481;-62
2021/01/17 09:05:56;;;;;;;39.72;19.95;;;1.00;99.90;;;;;;5011758;28;20069;-64
2021/01/17 09:08:22;;;;;;;40.13;20.38;;;1.00;99.90;;;;;;5011489;28;20117;-63
2021/01/17 09:10:48;;;;;;;40.90;20.95;;;1.00;99.90;;;;;;5010273;28;20022;-63
2021/01/17 09:13:32;;;;;;;38.60;21.08;;;0.70;99.90;;;;;;5011347;28;20557;-64
2021/01/17 09:15:59;;;;;;;43.47;21.27;;;0.70;99.90;;;;;;5012450;28;20045;-62
2021/01/17 09:18:33;;;;;;;43.92;22.08;;;0.60;99.90;;;;;;5010298;28;20374;-62
2021/01/17 09:20:59;;;;;;;45.25;22.50;;;0.60;99.90;;;;;;5011873;28;20053;-67
2021/01/17 09:23:26;;;;;;;45.17;22.60;;;0.70;99.90;;;;;;5010438;28;20038;-70
2021/01/17 09:26:00;;;;;;;44.40;21.35;;;0.70;99.90;;;;;;5011318;28;20474;-67
2021/01/17 09:28:29;;;;;;;44.22;21.42;;;0.80;99.90;;;;;;4990454;28;20027;-67
2021/01/17 09:30:58;;;;;;;45.90;23.10;;;0.80;99.90;;;;;;4992326;28;20022;-53
2021/01/17 09:33:24;;;;;;;37.95;20.35;;;0.80;99.90;;;;;;5004123;28;20129;-56
2021/01/17 09:35:51;;;;;;;43.42;21.50;;;0.80;99.90;;;;;;5014352;28;20018;-55
2021/01/17 09:38:22;;;;;;;51.67;22.40;;;0.80;99.90;;;;;;5013807;28;20029;-57
2021/01/17 09:40:58;;;;;;;45.67;20.92;;;0.80;99.90;;;;;;5013609;28;20435;-52
2021/01/17 09:43:24;;;;;;;42.95;22.10;;;0.90;99.90;;;;;;5014102;28;20544;-52
2021/01/17 09:45:51;;;;;;;42.55;21.08;;;0.90;99.90;;;;;;5015425;28;20038;-55
2021/01/17 09:48:17;;;;;;;38.60;19.20;;;1.00;99.90;;;;;;5014649;28;20029;-55
2021/01/17 09:50:45;;;;;;;47.13;23.58;;;1.10;99.90;;;;;;5014326;28;20052;-55
2021/01/17 09:53:12;;;;;;;40.28;20.45;;;1.00;99.90;;;;;;5013347;28;20394;-54
2021/01/17 09:55:43;;;;;;;42.63;21.50;;;1.10;99.90;;;;;;5014679;28;20405;-56
2021/01/17 09:58:11;;;;;;;45.78;21.10;;;1.00;99.90;;;;;;5015173;28;20393;-52
2021/01/17 10:00:38;;;;;;;43.07;21.07;;;1.10;99.90;;;;;;5014799;28;20123;-52
2021/01/17 10:03:16;;;;;;;38.63;20.20;;;1.10;99.90;;;;;;5015014;28;20508;-52
2021/01/17 10:05:44;;;;;;;41.25;21.60;;;1.10;99.90;;;;;;5012651;28;20041;-55
2021/01/17 10:08:15;;;;;;;40.15;20.40;;;1.10;99.90;;;;;;5014862;28;20030;-56
2021/01/17 10:10:45;;;;;;;41.30;22.33;;;1.30;99.90;;;;;;5010452;28;20084;-61
2021/01/17 10:13:11;;;;;;;41.92;22.08;;;1.40;99.90;;;;;;5012201;28;20030;-59
2021/01/17 10:15:38;;;;;;;41.58;22.58;;;1.40;99.90;;;;;;5013268;28;20033;-62
2021/01/17 10:18:04;;;;;;;49.35;23.60;;;1.30;99.90;;;;;;5013897;28;20441;-59
2021/01/17 10:20:44;;;;;;;45.38;24.50;;;1.30;99.90;;;;;;5013816;28;20084;-58
2021/01/17 10:23:16;;;;;;;52.40;25.48;;;1.30;99.90;;;;;;5014840;28;20036;-49
2021/01/17 10:25:45;;;;;;;44.72;22.13;;;1.40;99.90;;;;;;5013199;28;20030;-59
2021/01/17 10:28:11;;;;;;;46.10;21.55;;;1.50;99.90;;;;;;5007204;28;20030;-57
2021/01/17 10:30:44;;;;;;;42.28;24.60;;;1.50;99.90;;;;;;5012367;28;20390;-58
2021/01/17 10:33:12;;;;;;;46.97;21.52;;;1.50;99.90;;;;;;5013062;28;20453;-59
2021/01/17 10:35:48;;;;;;;44.03;21.55;;;1.40;99.90;;;;;;5014997;28;20412;-59
2021/01/17 10:38:15;;;;;;;46.50;24.48;;;1.40;99.90;;;;;;5012806;28;20040;-60
2021/01/17 10:40:43;;;;;;;43.85;22.15;;;1.30;99.90;;;;;;5013264;28;20550;-60
2021/01/17 10:43:13;;;;;;;43.33;22.10;;;1.50;99.90;;;;;;5014351;28;20037;-58
2021/01/17 10:45:45;;;;;;;45.90;23.40;;;1.50;99.90;;;;;;5012144;28;20049;-57
2021/01/17 10:48:17;;;;;;;42.50;21.40;;;1.50;99.90;;;;;;5013893;28;20036;-60
2021/01/17 10:51:07;;;;;;;42.03;21.52;;;1.50;99.90;;;;;;5013838;28;20103;-56
2021/01/17 10:53:39;;;;;;;40.90;20.10;;;1.80;99.90;;;;;;5012715;28;20487;-58
2021/01/17 10:56:09;;;;;;;42.95;20.85;;;2.00;99.90;;;;;;5012652;28;20125;-56
2021/01/17 10:58:42;;;;;;;42.53;21.27;;;;;;;;;;5012443;28;20087;-58
2021/01/17 11:01:08;;;;;;;43.35;22.98;;;1.70;99.90;;;;;;5011957;28;20429;-59
2021/01/17 11:03:39;;;;;;;43.10;21.73;;;1.70;99.90;;;;;;5013814;28;20033;-57
2021/01/17 11:06:09;;;;;;;45.00;22.02;;;1.70;99.90;;;;;;5013708;28;20072;-55
2021/01/17 11:08:44;;;;;;;47.63;25.73;;;1.80;99.90;;;;;;5013241;28;20436;-57
2021/01/17 11:11:11;;;;;;;44.42;24.58;;;2.00;99.90;;;;;;5012739;28;20029;-57
2021/01/17 11:13:37;;;;;;;42.17;22.70;;;2.20;99.90;;;;;;5012758;28;20022;-56
2021/01/17 11:16:03;;;;;;;42.70;21.70;;;2.30;99.90;;;;;;5013469;28;20426;-59
2021/01/17 11:18:30;;;;;;;45.75;22.20;;;2.20;99.90;;;;;;5013177;28;20117;-56
2021/01/17 11:21:04;;;;;;;43.53;21.20;;;2.20;99.90;;;;;;5012135;28;20025;-61
2021/01/17 11:23:31;;;;;;;43.97;21.77;;;2.10;99.90;;;;;;5012646;28;20033;-57
2021/01/17 11:26:04;;;;;;;37.95;19.85;;;2.20;99.90;;;;;;5011533;28;20172;-57
2021/01/17 11:28:31;;;;;;;41.58;20.58;;;2.40;99.90;;;;;;4997003;28;20030;-60
2021/01/17 11:30:57;;;;;;;43.35;21.88;;;2.60;99.90;;;;;;4991338;28;20046;-59
2021/01/17 11:33:28;;;;;;;41.55;20.65;;;2.40;99.90;;;;;;4993932;28;20057;-57
2021/01/17 11:36:01;;;;;;;41.45;20.80;;;2.50;99.90;;;;;;4993925;28;20094;-55
2021/01/17 11:39:03;;;;;;;35.95;20.30;;;2.10;99.90;;;;;;4992728;28;20018;-55
2021/01/17 11:41:37;;;;;;;47.33;23.02;;;2.20;99.90;;;;;;4993682;28;20030;-52
2021/01/17 11:44:09;;;;;;;40.08;21.48;;;2.20;99.90;;;;;;4993525;28;20440;-55
2021/01/17 11:46:34;;;;;;;42.90;21.42;;;2.10;99.90;;;;;;4992273;28;20061;-56
2021/01/17 11:49:00;;;;;;;43.47;21.58;;;1.90;99.90;;;;;;4991492;28;20490;-58
2021/01/17 11:51:26;;;;;;;42.78;20.80;;;1.90;99.90;;;;;;4991569;28;20022;-57
2021/01/17 11:53:52;;;;;;;45.72;21.83;;;1.90;99.90;;;;;;4992952;28;20102;-58
2021/01/17 11:56:18;;;;;;;43.92;20.83;;;1.80;99.90;;;;;;4992492;28;20042;-55
2021/01/17 11:58:43;;;;;;;41.15;19.77;;;1.90;99.90;;;;;;5004107;28;20030;-59
2021/01/17 12:01:09;;;;;;;45.55;22.85;;;1.90;99.90;;;;;;5011774;28;20045;-60
2021/01/17 12:03:40;;;;;;;47.30;23.48;;;1.80;99.90;;;;;;5011505;28;20045;-59
2021/01/17 12:06:20;;;;;;;50.78;25.55;;;1.90;99.90;;;;;;5011063;28;20029;-55
2021/01/17 12:08:54;;;;;;;51.35;25.35;;;1.90;99.90;;;;;;5012083;28;20029;-59
2021/01/17 12:11:30;;;;;;;54.03;21.75;;;1.90;99.90;;;;;;4663313;28;10000078;-58
2021/01/17 12:13:56;;;;;;;48.45;24.52;;;2.00;99.90;;;;;;5000327;28;20085;-58
2021/01/17 12:16:31;;;;;;;53.70;24.52;;;2.10;99.90;;;;;;4990669;28;20096;-58
2021/01/17 12:18:57;;;;;;;49.58;24.00;;;2.10;99.90;;;;;;4998273;28;20573;-58
2021/01/17 12:21:26;;;;;;;51.22;24.17;;;2.10;99.90;;;;;;5004201;28;20417;-57
2021/01/17 12:23:52;;;;;;;58.13;24.67;;;2.20;99.90;;;;;;5007721;28;20037;-62
2021/01/17 12:26:19;;;;;;;47.92;22.55;;;2.20;99.90;;;;;;4992778;28;20034;-57
2021/01/17 12:28:45;;;;;;;55.38;30.27;;;2.10;99.90;;;;;;5006631;28;20038;-59
2021/01/17 12:31:15;;;;;;;51.45;24.92;;;2.10;99.90;;;;;;4992441;28;20088;-59
2021/01/17 12:33:41;;;;;;;60.95;29.63;;;2.10;99.90;;;;;;5005107;28;20096;-60
2021/01/17 12:36:09;;;;;;;58.75;27.27;;;2.00;99.90;;;;;;5011087;28;20156;-61
2021/01/17 12:38:35;;;;;;;53.13;26.77;;;2.00;99.90;;;;;;5010182;28;20030;-54
2021/01/17 12:41:01;;;;;;;58.67;26.67;;;1.90;99.90;;;;;;5012227;28;20072;-52
2021/01/17 12:43:27;;;;;;;55.55;26.60;;;2.00;99.90;;;;;;5003832;28;20615;-60
2021/01/17 12:45:52;;;;;;;61.53;29.58;;;1.90;99.90;;;;;;5008151;28;20034;-58
2021/01/17 12:48:18;;;;;;;67.82;33.28;;;1.80;99.90;;;;;;5011458;28;20053;-57